Harrington Cda Cs, Prince Edward Island

2:00 AM AST on February 10, 2016 (GMT -0400)
Winsloe Road | | Change Station
CLOSE
Current Station
Personal Weather Station
Location: Winsloe South, PRINCE EDWARD ISLAND
Elevation: 200 ft
Nearby Weather Stations

Elev 200 ft 46.30 °N, 63.18 °W | Updated 1 minute ago

Light Snow Grains
Light Snow Grains
26.2 °F
Feels Like 26 °F
N
1.0
Wind Variable Wind from SE
Gusts 1.0 mph

Today is forecast to be nearly the same temperature as yesterday.

Today
High -- | Low -- °F
--% Chance of Precip.
Yesterday
High -- | Low -- °F
Precip. -- in
Pressure 29.39 in
Visibility 10.0 miles
Clouds Mostly Cloudy 600 ft
Overcast 3000 ft
Windchill 26 °F
Dew Point 25 °F
Humidity 94%
Rainfall 0.00 in
Snow Depth Not available.
7:24 AM 5:30 PM
Waxing Crescent, 4% visible
SPECI CYYG 100551Z 30008KT 10SM -SG BKN006 OVC030 M03/M04 A2937 RMK SF5SC3 SLP950
Pressure 29.39 in
Visibility 10.0 miles
Clouds Mostly Cloudy 600 ft
Overcast 3000 ft
Windchill 26 °F
Dew Point 25 °F
Humidity 94%
Rainfall 0.00 in
Snow Depth Not available.
7:24 AM 5:30 PM
Waxing Crescent, 4% visible
SPECI CYYG 100551Z 30008KT 10SM -SG BKN006 OVC030 M03/M04 A2937 RMK SF5SC3 SLP950

10-Day Weather Forecast

No radar image for this location.
×

Almanac

Astronomy

Feb. 10, 2016 Rise Set
Actual Time
Civil Twilight
Nautical Twilight
Astronomical Twilight
Moon
Length of Visible Light
Length of Day
Tomorrow will be .
, % of the Moon is Illuminated

Today's Extremes

Country Highs Country Lows

Community

WunderPhotos

Upload Photos

1,891,823 photos uploaded!

WunderBlog® & News

Nearby

Air Quality

  Air Quality AQ Index Pollutant
Not available.

Snow Depth

Station Depth Elevation

Earthquake Activity

City Distance Mag. Time & Date
Minimum magnitude displayed is 2.5.

Coastal Water Temperatures

Place Temperature

Stations

Nearby Weather Stations

Station Location Temp. Windchill Dew Point Humidity Wind Precip. Elev Updated Type
                   

Watches & Warnings

There are currently no watches in effect.